Time;durP1;ratioP1;P1;durP2;ratioP2;P2;SDS_P1;SDS_P2;PMS_P1;PMS_P2;Temp;Humidity;BMP_temperature;BMP_pressure;BME280_temperature;BME280_humidity;BME280_pressure;Samples;Min_cycle;Max_cycle;Signal;HPM_P1;HPM_P2
2021/07/05 00:02:09;;;;;;;1.25;0.75;;;;;;;;;;5007216;28;20449;-84
2021/07/05 00:04:36;;;;;;;0.73;0.60;;;;;;;;;;5007595;28;20046;-84
2021/07/05 00:07:03;;;;;;;2.13;0.75;;;;;;;;;;5007662;28;20050;-84
2021/07/05 00:09:30;;;;;;;3.03;0.80;;;;;;;;;;5008582;28;20053;-82
2021/07/05 00:11:56;;;;;;;1.50;0.77;;;;;;;;;;5005853;28;20057;-82
2021/07/05 00:14:24;;;;;;;2.78;0.80;;;;;;;;;;5008157;28;20046;-83
2021/07/05 00:16:51;;;;;;;1.92;0.80;;;;;;;;;;5008815;28;20061;-83
2021/07/05 00:19:18;;;;;;;1.90;1.00;;;;;;;;;;5009575;28;20057;-83
2021/07/05 00:21:44;;;;;;;2.13;1.05;;;;;;;;;;5007512;28;20042;-84
2021/07/05 00:24:11;;;;;;;2.25;0.70;;;;;;;;;;5003317;28;20518;-83
2021/07/05 00:26:37;;;;;;;2.00;0.90;;;;;;;;;;5004928;28;20057;-82
2021/07/05 00:29:04;;;;;;;8.88;2.25;;;;;;;;;;5003665;28;20299;-83
2021/07/05 00:31:32;;;;;;;16.52;2.45;;;;;;;;;;5004938;28;20046;-82
2021/07/05 00:33:58;;;;;;;1.33;0.80;;;;;;;;;;4979242;28;20058;-81
2021/07/05 00:36:24;;;;;;;2.40;1.00;;;;;;;;;;4978933;28;20047;-81
2021/07/05 00:38:51;;;;;;;2.03;0.80;;;;;;;;;;4980954;28;20057;-81
2021/07/05 00:41:17;;;;;;;4.82;1.00;;;;;;;;;;4978933;28;20043;-81
2021/07/05 00:43:44;;;;;;;2.40;0.88;;;;;;;;;;4977747;28;20054;-82
2021/07/05 00:46:10;;;;;;;1.85;0.95;;;;;;;;;;4979092;28;20043;-81
2021/07/05 00:48:38;;;;;;;2.88;1.00;;;;;;;;;;4978295;28;20049;-81
2021/07/05 00:51:05;;;;;;;1.50;0.88;;;;;;;;;;4997766;28;20047;-81
2021/07/05 00:53:31;;;;;;;1.38;0.80;;;;;;;;;;4998120;28;20050;-81
2021/07/05 00:55:58;;;;;;;2.30;0.80;;;;;;;;;;4998185;28;20134;-83
2021/07/05 00:58:24;;;;;;;1.50;0.80;;;;;;;;;;4998335;28;20050;-81
2021/07/05 01:00:51;;;;;;;3.28;1.00;;;;;;;;;;4999661;28;20049;-81
2021/07/05 01:03:17;;;;;;;2.15;1.17;;;;;;;;;;4986517;28;20046;-81
2021/07/05 01:05:45;;;;;;;1.67;0.90;;;;;;;;;;4979603;28;20047;-81
2021/07/05 01:08:12;;;;;;;1.40;0.82;;;;;;;;;;4979391;28;20047;-81
2021/07/05 01:10:38;;;;;;;1.30;0.77;;;;;;;;;;4979751;28;20491;-81
2021/07/05 01:13:05;;;;;;;2.10;0.95;;;;;;;;;;4980097;28;20419;-81
2021/07/05 01:15:32;;;;;;;1.95;0.88;;;;;;;;;;4979740;28;20051;-81
2021/07/05 01:18:02;;;;;;;2.13;1.00;;;;;;;;;;4979931;28;20055;-81
2021/07/05 01:20:31;;;;;;;1.85;0.85;;;;;;;;;;4980023;28;20047;-83
2021/07/05 01:22:59;;;;;;;1.75;1.00;;;;;;;;;;4979831;28;20415;-81
2021/07/05 01:25:28;;;;;;;2.25;1.23;;;;;;;;;;4979978;28;20043;-81
2021/07/05 01:27:55;;;;;;;1.65;0.82;;;;;;;;;;4981337;28;20529;-81
2021/07/05 01:30:23;;;;;;;2.15;0.98;;;;;;;;;;4979157;28;20051;-82
2021/07/05 01:32:51;;;;;;;1.30;0.90;;;;;;;;;;4976603;28;20058;-81
2021/07/05 01:35:18;;;;;;;3.13;1.05;;;;;;;;;;4976722;28;20049;-82
2021/07/05 01:37:45;;;;;;;3.13;1.10;;;;;;;;;;4976407;28;20057;-81
2021/07/05 01:40:17;;;;;;;2.08;1.17;;;;;;;;;;4976479;28;20046;-82
2021/07/05 01:42:45;;;;;;;1.80;1.10;;;;;;;;;;4977905;28;20066;-81
2021/07/05 01:45:12;;;;;;;2.30;1.17;;;;;;;;;;4995305;28;20050;-81
2021/07/05 01:47:39;;;;;;;1.70;1.08;;;;;;;;;;4995874;28;20066;-81
2021/07/05 01:50:07;;;;;;;1.75;1.10;;;;;;;;;;4994352;28;20057;-82
2021/07/05 01:52:33;;;;;;;3.28;1.15;;;;;;;;;;4995575;28;20053;-81
2021/07/05 01:55:00;;;;;;;2.00;1.20;;;;;;;;;;4995427;28;20061;-82
2021/07/05 01:57:29;;;;;;;3.53;1.38;;;;;;;;;;4991052;28;20491;-82
2021/07/05 01:59:59;;;;;;;1.45;0.82;;;;;;;;;;4975820;28;20105;-81
2021/07/05 02:02:26;;;;;;;2.83;1.00;;;;;;;;;;4982325;28;20053;-82
2021/07/05 02:04:53;;;;;;;1.80;1.00;;;;;;;;;;4994435;28;20050;-81
2021/07/05 02:07:20;;;;;;;1.80;0.77;;;;;;;;;;4991953;28;20687;-81
2021/07/05 02:09:46;;;;;;;2.88;1.00;;;;;;;;;;4974813;28;20408;-81
2021/07/05 02:12:14;;;;;;;1.52;1.00;;;;;;;;;;4975273;28;20055;-81
2021/07/05 02:14:42;;;;;;;1.70;1.10;;;;;;;;;;4975219;28;20055;-81
2021/07/05 02:17:11;;;;;;;4.00;1.00;;;;;;;;;;4975582;28;20083;-81
2021/07/05 02:19:38;;;;;;;2.70;1.08;;;;;;;;;;4975129;28;20053;-81
2021/07/05 02:22:05;;;;;;;3.30;1.50;;;;;;;;;;4975190;28;20043;-81
2021/07/05 02:24:32;;;;;;;4.53;1.52;;;;;;;;;;4975149;28;20054;-81
2021/07/05 02:26:59;;;;;;;2.38;1.10;;;;;;;;;;4975570;28;20047;-81
2021/07/05 02:29:25;;;;;;;1.90;1.00;;;;;;;;;;4992291;28;20050;-81
2021/07/05 02:31:53;;;;;;;2.03;1.00;;;;;;;;;;4989695;28;20046;-81
2021/07/05 02:34:20;;;;;;;1.65;1.05;;;;;;;;;;4975051;28;20051;-81
2021/07/05 02:36:46;;;;;;;1.42;0.73;;;;;;;;;;4975150;28;20053;-81
2021/07/05 02:39:13;;;;;;;1.77;1.00;;;;;;;;;;4974976;28;20046;-81
2021/07/05 02:41:39;;;;;;;2.28;1.02;;;;;;;;;;4975043;28;20057;-80
2021/07/05 02:44:06;;;;;;;1.80;0.90;;;;;;;;;;4975149;28;20050;-81
2021/07/05 02:46:32;;;;;;;2.63;0.90;;;;;;;;;;4975041;28;20046;-81
2021/07/05 02:49:00;;;;;;;1.98;0.90;;;;;;;;;;4975110;28;20050;-81
2021/07/05 02:51:26;;;;;;;1.50;0.90;;;;;;;;;;4975076;28;20058;-81
2021/07/05 02:53:53;;;;;;;2.22;1.20;;;;;;;;;;4975058;28;20077;-81
2021/07/05 02:56:19;;;;;;;2.20;1.20;;;;;;;;;;4975256;28;20053;-81
2021/07/05 02:58:46;;;;;;;3.38;1.20;;;;;;;;;;4989465;28;20499;-81
2021/07/05 03:01:12;;;;;;;3.13;1.08;;;;;;;;;;4976185;28;20051;-80
2021/07/05 03:03:39;;;;;;;4.05;1.30;;;;;;;;;;4991847;28;20506;-80
2021/07/05 03:06:07;;;;;;;3.05;1.17;;;;;;;;;;4997018;28;20054;-81
2021/07/05 03:08:33;;;;;;;3.30;1.67;;;;;;;;;;4998449;28;20050;-81
2021/07/05 03:11:00;;;;;;;1.48;1.00;;;;;;;;;;4998873;28;20054;-81
2021/07/05 03:13:26;;;;;;;3.22;1.38;;;;;;;;;;4998612;28;20383;-81
2021/07/05 03:15:54;;;;;;;3.47;1.83;;;;;;;;;;4998721;28;20058;-81
2021/07/05 03:18:21;;;;;;;1.85;1.30;;;;;;;;;;4999118;28;20105;-81
2021/07/05 03:20:49;;;;;;;3.10;1.13;;;;;;;;;;4999108;28;20046;-80
2021/07/05 03:23:19;;;;;;;2.38;1.40;;;;;;;;;;4998918;28;20046;-81
2021/07/05 03:25:46;;;;;;;3.45;1.08;;;;;;;;;;5003002;28;20053;-82
2021/07/05 03:28:15;;;;;;;1.60;1.20;;;;;;;;;;5004862;28;20069;-83
2021/07/05 03:30:44;;;;;;;2.05;1.20;;;;;;;;;;5005431;28;20046;-83
2021/07/05 03:33:10;;;;;;;2.28;0.85;;;;;;;;;;4988450;28;20419;-82
2021/07/05 03:35:38;;;;;;;2.75;1.10;;;;;;;;;;4986338;28;20054;-83
2021/07/05 03:38:05;;;;;;;2.50;1.20;;;;;;;;;;4986890;28;20057;-83
2021/07/05 03:40:35;;;;;;;2.58;1.23;;;;;;;;;;4988021;28;20114;-81
2021/07/05 03:43:02;;;;;;;1.48;1.08;;;;;;;;;;4987540;28;20506;-83
2021/07/05 03:45:31;;;;;;;1.58;0.98;;;;;;;;;;4987107;28;20050;-82
2021/07/05 03:47:58;;;;;;;1.45;1.00;;;;;;;;;;4987700;28;20053;-84
2021/07/05 03:50:25;;;;;;;3.78;1.00;;;;;;;;;;4988409;28;20043;-83
2021/07/05 03:52:52;;;;;;;1.58;0.90;;;;;;;;;;4988781;28;20062;-84
2021/07/05 03:55:21;;;;;;;3.58;0.90;;;;;;;;;;4989350;28;20050;-84
2021/07/05 03:57:50;;;;;;;4.20;1.40;;;;;;;;;;4989879;28;20054;-83
2021/07/05 04:00:18;;;;;;;2.33;1.85;;;;;;;;;;4990079;28;20046;-83
2021/07/05 04:02:45;;;;;;;2.55;1.13;;;;;;;;;;4993056;28;20039;-84
2021/07/05 04:05:12;;;;;;;3.08;1.40;;;;;;;;;;5005867;28;20054;-82
2021/07/05 04:07:40;;;;;;;2.55;1.10;;;;;;;;;;4997201;28;20046;-81
2021/07/05 04:10:07;;;;;;;4.20;1.13;;;;;;;;;;4997426;28;20050;-82
2021/07/05 04:12:34;;;;;;;3.78;1.23;;;;;;;;;;4997241;28;20511;-82
2021/07/05 04:15:04;;;;;;;2.47;1.20;;;;;;;;;;4997988;28;20050;-81
2021/07/05 04:17:31;;;;;;;1.30;0.88;;;;;;;;;;4997761;28;20053;-82
2021/07/05 04:19:57;;;;;;;2.83;1.40;;;;;;;;;;4997297;28;20065;-81
2021/07/05 04:22:24;;;;;;;5.32;1.38;;;;;;;;;;4997208;28;20050;-81
2021/07/05 04:24:51;;;;;;;5.10;1.40;;;;;;;;;;4997682;28;20070;-83
2021/07/05 04:27:17;;;;;;;6.00;1.27;;;;;;;;;;4991458;28;20522;-82
2021/07/05 04:29:44;;;;;;;4.63;1.38;;;;;;;;;;4994481;28;20062;-82
2021/07/05 04:32:12;;;;;;;2.58;1.33;;;;;;;;;;4986073;28;20051;-82
2021/07/05 04:34:39;;;;;;;2.53;1.25;;;;;;;;;;4977669;28;20514;-81
2021/07/05 04:37:05;;;;;;;9.77;1.77;;;;;;;;;;4978525;28;20051;-81
2021/07/05 04:39:32;;;;;;;4.88;1.70;;;;;;;;;;4977473;28;20050;-82
2021/07/05 04:41:58;;;;;;;4.32;1.63;;;;;;;;;;4977393;28;20058;-83
2021/07/05 04:44:25;;;;;;;4.55;3.15;;;;;;;;;;4977416;28;20140;-81
2021/07/05 04:46:51;;;;;;;3.15;2.13;;;;;;;;;;4977636;28;20058;-82
2021/07/05 04:49:20;;;;;;;4.53;2.30;;;;;;;;;;4977925;28;20050;-82
2021/07/05 04:51:47;;;;;;;3.17;2.40;;;;;;;;;;4977197;28;20051;-82
2021/07/05 04:54:14;;;;;;;6.60;2.83;;;;;;;;;;4977482;28;20051;-81
2021/07/05 04:56:41;;;;;;;6.50;4.65;;;;;;;;;;4976942;28;20054;-82
2021/07/05 04:59:08;;;;;;;9.07;3.08;;;;;;;;;;4977057;28;20389;-82
2021/07/05 05:01:35;;;;;;;2.95;1.80;;;;;;;;;;4983663;28;20046;-82
2021/07/05 05:04:01;;;;;;;14.82;1.75;;;;;;;;;;4997586;28;20061;-82
2021/07/05 05:06:29;;;;;;;3.80;1.30;;;;;;;;;;4997777;28;20050;-82
2021/07/05 05:08:56;;;;;;;2.20;1.10;;;;;;;;;;4998371;28;20138;-82
2021/07/05 05:11:22;;;;;;;1.95;1.20;;;;;;;;;;4997333;28;20061;-82
2021/07/05 05:13:49;;;;;;;2.75;1.13;;;;;;;;;;4996024;28;20043;-83
2021/07/05 05:16:16;;;;;;;1.98;0.98;;;;;;;;;;4980781;28;20050;-82
2021/07/05 05:18:43;;;;;;;1.83;1.00;;;;;;;;;;4997613;28;20042;-82
2021/07/05 05:21:10;;;;;;;4.22;1.15;;;;;;;;;;4996999;28;20046;-84
2021/07/05 05:23:38;;;;;;;8.40;1.55;;;;;;;;;;4997537;28;20057;-82
2021/07/05 05:26:06;;;;;;;2.35;1.20;;;;;;;;;;4997436;28;20055;-82
2021/07/05 05:28:33;;;;;;;2.08;1.30;;;;;;;;;;4995349;28;20114;-84
2021/07/05 05:31:00;;;;;;;2.35;1.13;;;;;;;;;;4981471;28;20059;-83
2021/07/05 05:33:26;;;;;;;3.05;1.30;;;;;;;;;;4988534;28;20057;-83
2021/07/05 05:35:53;;;;;;;6.97;1.67;;;;;;;;;;4988181;28;20065;-83
2021/07/05 05:38:20;;;;;;;2.92;1.48;;;;;;;;;;4993267;28;20056;-83
2021/07/05 05:40:48;;;;;;;1.52;1.10;;;;;;;;;;4993810;28;20047;-83
2021/07/05 05:43:16;;;;;;;2.30;1.05;;;;;;;;;;4992257;28;20051;-83
2021/07/05 05:45:42;;;;;;;1.95;1.00;;;;;;;;;;4994322;28;20071;-83
2021/07/05 05:48:09;;;;;;;4.28;1.48;;;;;;;;;;4994376;28;20058;-83
2021/07/05 05:50:35;;;;;;;1.45;1.10;;;;;;;;;;4996502;28;20047;-83
2021/07/05 05:53:01;;;;;;;2.30;1.30;;;;;;;;;;4994183;28;20073;-84
2021/07/05 05:55:28;;;;;;;1.95;1.00;;;;;;;;;;4992779;28;20050;-84
2021/07/05 05:57:56;;;;;;;2.90;1.35;;;;;;;;;;4987127;28;20050;-83
2021/07/05 06:00:24;;;;;;;2.13;0.93;;;;;;;;;;4990528;28;20106;-83
2021/07/05 06:02:51;;;;;;;2.90;1.10;;;;;;;;;;4982666;28;20073;-83
2021/07/05 06:05:18;;;;;;;2.33;1.20;;;;;;;;;;4987653;28;20134;-83
2021/07/05 06:07:49;;;;;;;2.13;1.10;;;;;;;;;;4976572;28;20047;-83
2021/07/05 06:10:16;;;;;;;2.25;1.20;;;;;;;;;;4985889;28;20575;-84
2021/07/05 06:12:43;;;;;;;2.20;1.25;;;;;;;;;;4985600;28;20077;-84
2021/07/05 06:15:12;;;;;;;3.45;1.05;;;;;;;;;;5003021;28;20384;-84
2021/07/05 06:17:39;;;;;;;1.38;1.00;;;;;;;;;;5005120;28;20057;-84
2021/07/05 06:20:06;;;;;;;3.80;1.33;;;;;;;;;;5005038;28;20046;-86
2021/07/05 06:22:39;;;;;;;3.83;0.90;;;;;;;;;;5003402;28;20044;-84
2021/07/05 06:25:08;;;;;;;1.77;0.90;;;;;;;;;;5006328;28;20054;-83
2021/07/05 06:27:35;;;;;;;3.80;1.10;;;;;;;;;;5006005;28;20536;-85
2021/07/05 06:30:01;;;;;;;4.30;1.20;;;;;;;;;;5005386;28;20053;-86
2021/07/05 06:32:29;;;;;;;1.67;1.00;;;;;;;;;;5004814;28;20172;-83
2021/07/05 06:34:55;;;;;;;2.28;0.95;;;;;;;;;;4986544;28;20054;-84
2021/07/05 06:37:22;;;;;;;1.27;0.80;;;;;;;;;;5005582;28;20042;-84
2021/07/05 06:39:48;;;;;;;2.20;0.82;;;;;;;;;;5005917;28;20053;-85
2021/07/05 06:42:15;;;;;;;2.40;0.80;;;;;;;;;;5005512;28;20043;-82
2021/07/05 06:44:41;;;;;;;1.48;0.90;;;;;;;;;;5006450;28;20054;-85
2021/07/05 06:47:08;;;;;;;1.75;0.80;;;;;;;;;;5005400;28;20061;-86
2021/07/05 06:49:36;;;;;;;1.13;0.77;;;;;;;;;;5006209;28;20042;-84
2021/07/05 06:52:02;;;;;;;4.38;0.90;;;;;;;;;;5004534;28;20046;-86
2021/07/05 06:54:29;;;;;;;1.70;0.82;;;;;;;;;;5005145;28;20057;-83
2021/07/05 06:56:55;;;;;;;2.00;1.00;;;;;;;;;;5005216;28;20042;-83
2021/07/05 06:59:22;;;;;;;1.60;0.90;;;;;;;;;;5005502;28;20050;-83
2021/07/05 07:01:48;;;;;;;2.22;0.88;;;;;;;;;;5006591;28;20054;-84
2021/07/05 07:04:16;;;;;;;1.73;0.88;;;;;;;;;;5004692;28;20054;-84
2021/07/05 07:06:48;;;;;;;2.13;0.90;;;;;;;;;;5005424;28;20058;-84
2021/07/05 07:09:15;;;;;;;3.70;1.00;;;;;;;;;;5005662;28;20046;-84
2021/07/05 07:11:41;;;;;;;1.75;0.70;;;;;;;;;;5005368;28;20056;-84
2021/07/05 07:14:08;;;;;;;3.58;0.88;;;;;;;;;;5005496;28;20046;-83
2021/07/05 07:16:40;;;;;;;1.75;0.80;;;;;;;;;;5005206;28;20052;-83
2021/07/05 07:19:18;;;;;;;2.25;0.85;;;;;;;;;;5006795;28;20046;-82
2021/07/05 07:21:47;;;;;;;1.48;0.95;;;;;;;;;;5005308;28;20046;-82
2021/07/05 07:24:14;;;;;;;1.83;0.90;;;;;;;;;;5004328;28;20042;-84
2021/07/05 07:26:41;;;;;;;4.38;0.88;;;;;;;;;;5005054;28;20487;-83
2021/07/05 07:29:07;;;;;;;3.15;0.80;;;;;;;;;;5005405;28;20052;-84
2021/07/05 07:31:34;;;;;;;2.08;0.88;;;;;;;;;;5005285;28;20049;-85
2021/07/05 07:34:01;;;;;;;1.02;0.50;;;;;;;;;;5005887;28;20046;-83
2021/07/05 07:36:27;;;;;;;2.42;1.00;;;;;;;;;;5004447;28;20053;-85
2021/07/05 07:39:00;;;;;;;1.10;0.80;;;;;;;;;;5006052;28;20046;-82
2021/07/05 07:41:31;;;;;;;1.55;0.90;;;;;;;;;;5006148;28;20106;-83
2021/07/05 07:43:58;;;;;;;1.92;0.70;;;;;;;;;;5005677;28;20049;-84
2021/07/05 07:46:24;;;;;;;1.40;0.80;;;;;;;;;;5005855;28;20053;-83
2021/07/05 07:48:51;;;;;;;1.80;1.00;;;;;;;;;;5006024;28;20050;-83
2021/07/05 07:51:17;;;;;;;2.03;0.90;;;;;;;;;;5004896;28;20042;-87
2021/07/05 07:53:44;;;;;;;1.73;0.90;;;;;;;;;;5009114;28;20054;-85
2021/07/05 07:56:11;;;;;;;1.65;0.80;;;;;;;;;;5009093;28;20050;-85
2021/07/05 07:58:38;;;;;;;1.35;0.98;;;;;;;;;;5009323;28;20054;-82
2021/07/05 08:01:06;;;;;;;1.95;0.90;;;;;;;;;;5009245;28;20054;-84
2021/07/05 08:03:32;;;;;;;1.08;0.70;;;;;;;;;;4989906;28;20072;-84
2021/07/05 08:05:59;;;;;;;1.98;0.75;;;;;;;;;;4989636;28;20059;-87
2021/07/05 08:08:25;;;;;;;2.03;0.82;;;;;;;;;;4990032;28;20053;-84
2021/07/05 08:10:52;;;;;;;2.50;1.02;;;;;;;;;;4990240;28;20454;-86
2021/07/05 08:13:20;;;;;;;1.40;0.73;;;;;;;;;;5009302;28;20050;-83
2021/07/05 08:15:48;;;;;;;1.40;0.90;;;;;;;;;;5009062;28;20046;-82
2021/07/05 08:18:14;;;;;;;1.40;0.80;;;;;;;;;;5009628;28;20050;-83
2021/07/05 08:20:41;;;;;;;2.00;0.75;;;;;;;;;;5008878;28;20046;-86
2021/07/05 08:23:07;;;;;;;1.10;0.82;;;;;;;;;;5002178;28;20058;-84
2021/07/05 08:25:34;;;;;;;0.68;0.68;;;;;;;;;;5008766;28;20156;-84
2021/07/05 08:28:00;;;;;;;2.00;1.05;;;;;;;;;;5008479;28;20054;-82
2021/07/05 08:30:28;;;;;;;2.58;1.05;;;;;;;;;;5008562;28;20050;-84
2021/07/05 08:32:55;;;;;;;3.00;0.88;;;;;;;;;;5007959;28;20073;-85
2021/07/05 08:35:23;;;;;;;5.10;1.13;;;;;;;;;;5007857;28;20043;-80
2021/07/05 08:37:52;;;;;;;1.65;0.90;;;;;;;;;;5007217;28;20050;-83
2021/07/05 08:40:19;;;;;;;1.90;1.00;;;;;;;;;;5004715;28;20054;-84
2021/07/05 08:42:46;;;;;;;1.88;1.10;;;;;;;;;;5007846;28;20523;-85
2021/07/05 08:45:13;;;;;;;1.80;1.00;;;;;;;;;;5008195;28;20050;-85
2021/07/05 08:47:43;;;;;;;2.08;0.80;;;;;;;;;;5008101;28;20145;-84
2021/07/05 08:50:11;;;;;;;4.22;1.15;;;;;;;;;;5008957;28;20073;-86
2021/07/05 08:52:42;;;;;;;2.17;0.80;;;;;;;;;;5008103;28;20051;-84
2021/07/05 08:55:10;;;;;;;1.42;0.80;;;;;;;;;;5008573;28;20042;-82
2021/07/05 08:57:38;;;;;;;1.77;0.80;;;;;;;;;;5009501;28;20054;-84
2021/07/05 09:00:07;;;;;;;5.90;1.00;;;;;;;;;;5008028;28;20046;-84
2021/07/05 09:02:33;;;;;;;1.95;0.70;;;;;;;;;;5004913;28;20050;-84
2021/07/05 09:05:01;;;;;;;1.00;0.65;;;;;;;;;;5003035;28;20046;-84
2021/07/05 09:07:27;;;;;;;6.70;1.50;;;;;;;;;;5004235;28;20365;-84
2021/07/05 09:09:59;;;;;;;3.45;1.00;;;;;;;;;;5003755;28;20050;-84
2021/07/05 09:12:26;;;;;;;2.88;0.95;;;;;;;;;;5003480;28;20046;-83
2021/07/05 09:15:10;;;;;;;3.75;0.85;;;;;;;;;;5003214;28;20082;-84
2021/07/05 09:17:40;;;;;;;2.13;0.60;;;;;;;;;;5004085;28;20056;-84
2021/07/05 09:20:21;;;;;;;1.90;0.77;;;;;;;;;;5003575;28;20082;-83
2021/07/05 09:23:11;;;;;;;6.75;1.00;;;;;;;;;;5003763;28;20133;-81
2021/07/05 09:25:39;;;;;;;1.85;0.70;;;;;;;;;;5003337;28;20110;-82
2021/07/05 09:28:06;;;;;;;1.98;0.95;;;;;;;;;;5001776;28;20665;-81
2021/07/05 09:30:37;;;;;;;3.38;0.90;;;;;;;;;;4996999;28;20502;-82
2021/07/05 09:33:21;;;;;;;4.55;0.90;;;;;;;;;;4997715;28;20046;-83
2021/07/05 09:35:51;;;;;;;4.63;0.90;;;;;;;;;;4997388;28;20042;-82
2021/07/05 09:38:32;;;;;;;4.00;0.88;;;;;;;;;;4995958;28;20480;-81
2021/07/05 09:40:59;;;;;;;2.15;0.70;;;;;;;;;;4996968;28;20054;-84
2021/07/05 09:43:27;;;;;;;1.20;0.70;;;;;;;;;;4996448;28;20050;-82
2021/07/05 09:45:54;;;;;;;2.15;1.00;;;;;;;;;;4997088;28;20466;-83
2021/07/05 09:48:24;;;;;;;1.00;0.70;;;;;;;;;;4996824;28;20422;-82
2021/07/05 09:50:58;;;;;;;1.30;0.60;;;;;;;;;;4997749;28;20054;-81
2021/07/05 09:53:26;;;;;;;1.00;0.68;;;;;;;;;;4997632;28;20050;-81
2021/07/05 09:55:53;;;;;;;2.25;0.90;;;;;;;;;;4998026;28;20054;-81
2021/07/05 09:58:30;;;;;;;1.27;0.82;;;;;;;;;;4998552;28;20050;-82
2021/07/05 10:00:56;;;;;;;1.60;0.75;;;;;;;;;;4997825;28;20050;-81
2021/07/05 10:03:33;;;;;;;1.15;0.70;;;;;;;;;;4997244;28;20435;-82
2021/07/05 10:06:15;;;;;;;0.95;0.65;;;;;;;;;;4997863;28;20485;-82
2021/07/05 10:08:41;;;;;;;3.88;0.90;;;;;;;;;;4998007;28;20058;-83
2021/07/05 10:11:08;;;;;;;0.85;0.52;;;;;;;;;;4997271;28;20057;-83
2021/07/05 10:13:34;;;;;;;1.10;0.70;;;;;;;;;;4997131;28;20054;-84
2021/07/05 10:16:02;;;;;;;1.67;1.00;;;;;;;;;;4998473;28;20157;-82
2021/07/05 10:18:29;;;;;;;1.27;0.60;;;;;;;;;;4997955;28;20133;-82
2021/07/05 10:20:55;;;;;;;1.92;0.73;;;;;;;;;;4998178;28;20069;-82
2021/07/05 10:23:23;;;;;;;2.55;0.80;;;;;;;;;;4999322;28;20054;-81
2021/07/05 10:25:51;;;;;;;1.45;0.70;;;;;;;;;;4999098;28;20046;-82
2021/07/05 10:28:18;;;;;;;0.55;0.47;;;;;;;;;;4998644;28;20118;-83
2021/07/05 10:30:46;;;;;;;0.75;0.55;;;;;;;;;;4998897;28;20050;-82
2021/07/05 10:33:12;;;;;;;2.55;0.85;;;;;;;;;;4999017;28;20042;-84
2021/07/05 10:35:40;;;;;;;1.02;0.63;;;;;;;;;;4998694;28;20057;-82
2021/07/05 10:38:12;;;;;;;2.20;0.60;;;;;;;;;;4998701;28;20062;-84
2021/07/05 10:40:42;;;;;;;2.53;0.88;;;;;;;;;;5001094;28;20042;-83
2021/07/05 10:43:11;;;;;;;1.48;0.73;;;;;;;;;;5004827;28;20069;-85
2021/07/05 10:45:42;;;;;;;0.60;0.50;;;;;;;;;;5005685;28;20137;-84
2021/07/05 10:48:09;;;;;;;1.13;0.77;;;;;;;;;;5005338;28;20058;-82
2021/07/05 10:50:55;;;;;;;0.85;0.60;;;;;;;;;;5005290;28;20054;-84
2021/07/05 10:54:07;;;;;;;1.27;0.63;;;;;;;;;;5004741;28;20047;-85
2021/07/05 10:56:41;;;;;;;1.70;0.75;;;;;;;;;;5004598;28;20049;-84
2021/07/05 10:59:33;;;;;;;1.45;0.70;;;;;;;;;;5004840;28;20399;-84
2021/07/05 11:02:00;;;;;;;2.10;0.90;;;;;;;;;;5005052;28;20053;-84
2021/07/05 11:04:30;;;;;;;2.03;0.88;;;;;;;;;;5005666;28;20047;-85
2021/07/05 11:06:58;;;;;;;1.63;0.90;;;;;;;;;;5006857;28;20054;-85
2021/07/05 11:09:25;;;;;;;1.65;0.60;;;;;;;;;;5006208;28;20081;-84
2021/07/05 11:11:55;;;;;;;2.10;0.88;;;;;;;;;;5006033;28;20078;-83
2021/07/05 11:14:25;;;;;;;1.73;0.73;;;;;;;;;;5007785;28;20058;-84
2021/07/05 11:17:00;;;;;;;1.25;0.73;;;;;;;;;;5006088;28;20046;-85
2021/07/05 11:19:36;;;;;;;1.10;0.75;;;;;;;;;;5006633;28;20105;-85
2021/07/05 11:22:09;;;;;;;1.13;0.70;;;;;;;;;;5005549;28;20050;-85
2021/07/05 11:24:41;;;;;;;1.60;0.80;;;;;;;;;;5006190;28;20046;-87
2021/07/05 11:27:44;;;;;;;2.70;0.85;;;;;;;;;;5007219;28;20038;-83
2021/07/05 11:30:23;;;;;;;2.70;0.90;;;;;;;;;;5010227;28;20461;-82
2021/07/05 11:32:55;;;;;;;2.33;0.80;;;;;;;;;;5009763;28;20050;-84
2021/07/05 11:35:41;;;;;;;2.13;1.00;;;;;;;;;;5010996;28;20066;-84
2021/07/05 11:38:11;;;;;;;2.95;0.93;;;;;;;;;;5011062;28;20054;-82
2021/07/05 11:40:46;;;;;;;1.83;0.77;;;;;;;;;;5009236;28;20054;-82
2021/07/05 11:43:15;;;;;;;1.35;0.80;;;;;;;;;;5006803;28;20038;-86
2021/07/05 11:45:46;;;;;;;2.00;0.60;;;;;;;;;;5010887;28;20046;-85
2021/07/05 11:48:56;;;;;;;1.35;0.60;;;;;;;;;;5010846;28;20046;-87
2021/07/05 11:51:26;;;;;;;2.70;0.68;;;;;;;;;;5011755;28;20118;-86
2021/07/05 11:53:55;;;;;;;1.48;0.77;;;;;;;;;;5011947;28;20130;-84
2021/07/05 11:56:28;;;;;;;1.25;0.60;;;;;;;;;;5012181;28;20105;-85
2021/07/05 11:58:55;;;;;;;0.88;0.50;;;;;;;;;;5013272;28;20430;-83
2021/07/05 12:01:25;;;;;;;1.13;0.70;;;;;;;;;;5011001;28;20058;-84
2021/07/05 12:03:52;;;;;;;7.60;0.85;;;;;;;;;;5008874;28;20042;-85
2021/07/05 12:06:19;;;;;;;1.42;0.57;;;;;;;;;;5006963;28;20495;-84
2021/07/05 12:08:52;;;;;;;4.55;1.35;;;;;;;;;;5006768;28;20056;-85
2021/07/05 12:11:28;;;;;;;2.67;0.90;;;;;;;;;;5007890;28;20050;-85
2021/07/05 12:14:02;;;;;;;;;;;;;;;;;;5008639;28;20054;-83
2021/07/05 12:16:30;;;;;;;1.45;0.73;;;;;;;;;;5007796;28;20297;-84
2021/07/05 12:18:58;;;;;;;1.08;0.57;;;;;;;;;;5008029;28;20050;-83
2021/07/05 12:21:31;;;;;;;2.90;1.00;;;;;;;;;;5007634;28;20054;-83
2021/07/05 12:24:08;;;;;;;1.88;1.20;;;;;;;;;;5008762;28;20495;-82
2021/07/05 12:26:41;;;;;;;1.20;0.80;;;;;;;;;;5007075;28;20081;-82
2021/07/05 12:29:10;;;;;;;1.05;0.75;;;;;;;;;;5007546;28;20054;-83
2021/07/05 12:31:50;;;;;;;2.53;0.70;;;;;;;;;;5006994;28;20061;-84
2021/07/05 12:34:51;;;;;;;3.10;0.73;;;;;;;;;;5007839;28;20046;-83
2021/07/05 12:37:22;;;;;;;3.67;0.82;;;;;;;;;;5006358;28;20054;-83
2021/07/05 12:39:52;;;;;;;1.60;0.82;;;;;;;;;;5005975;28;20054;-82
2021/07/05 12:42:27;;;;;;;2.20;1.00;;;;;;;;;;5005433;28;20047;-86
2021/07/05 12:44:53;;;;;;;1.87;0.70;;;;;;;;;;5003555;28;20042;-81
2021/07/05 12:47:21;;;;;;;2.58;0.80;;;;;;;;;;4996317;28;20050;-81
2021/07/05 12:49:49;;;;;;;1.02;0.60;;;;;;;;;;4996089;28;20054;-81
2021/07/05 12:52:15;;;;;;;1.75;0.60;;;;;;;;;;4995862;28;20047;-81
2021/07/05 12:54:42;;;;;;;1.45;0.45;;;;;;;;;;4996140;28;20073;-83
2021/07/05 12:57:11;;;;;;;1.50;0.93;;;;;;;;;;4996182;28;20053;-82
2021/07/05 12:59:39;;;;;;;0.70;0.30;;;;;;;;;;4995700;28;20112;-80
2021/07/05 13:02:06;;;;;;;0.57;0.45;;;;;;;;;;4995847;28;20101;-82
2021/07/05 13:04:33;;;;;;;1.27;0.68;;;;;;;;;;4995527;28;20403;-83
2021/07/05 13:07:02;;;;;;;0.85;0.43;;;;;;;;;;4996077;28;20054;-82
2021/07/05 13:09:30;;;;;;;1.17;0.45;;;;;;;;;;4995638;28;20105;-82
2021/07/05 13:11:58;;;;;;;2.25;0.55;;;;;;;;;;4995185;28;20046;-82
2021/07/05 13:14:27;;;;;;;1.65;0.60;;;;;;;;;;4995536;28;20138;-81
2021/07/05 13:17:04;;;;;;;2.00;0.60;;;;;;;;;;4995196;28;20507;-81
2021/07/05 13:19:31;;;;;;;1.20;0.40;;;;;;;;;;4995860;28;20050;-83
2021/07/05 13:21:59;;;;;;;2.50;0.55;;;;;;;;;;4995342;28;20407;-81
2021/07/05 13:24:28;;;;;;;3.15;0.70;;;;;;;;;;4995460;28;20054;-82
2021/07/05 13:26:56;;;;;;;1.85;0.90;;;;;;;;;;4994768;28;20050;-82
2021/07/05 13:29:25;;;;;;;1.35;0.70;;;;;;;;;;4995021;28;20082;-82
2021/07/05 13:31:53;;;;;;;0.77;0.40;;;;;;;;;;4995241;28;20058;-81
2021/07/05 13:34:35;;;;;;;1.83;0.55;;;;;;;;;;4994999;28;20046;-82
2021/07/05 13:37:04;;;;;;;4.05;0.70;;;;;;;;;;4994704;28;20487;-82
2021/07/05 13:39:32;;;;;;;1.35;0.60;;;;;;;;;;4994856;28;20042;-81
2021/07/05 13:42:03;;;;;;;1.15;0.70;;;;;;;;;;4994715;28;20050;-81
2021/07/05 13:44:29;;;;;;;2.38;0.80;;;;;;;;;;4994659;28;20072;-83
2021/07/05 13:47:19;;;;;;;2.08;0.50;;;;;;;;;;4994784;28;20431;-81
2021/07/05 13:50:17;;;;;;;1.50;0.57;;;;;;;;;;4994988;28;20053;-81
2021/07/05 13:52:47;;;;;;;0.82;0.47;;;;;;;;;;4994891;28;20175;-83
2021/07/05 13:55:32;;;;;;;0.93;0.52;;;;;;;;;;4994668;28;20145;-82
2021/07/05 13:58:01;;;;;;;1.47;1.00;;;;;;;;;;4994690;28;20137;-81
2021/07/05 14:00:28;;;;;;;0.88;0.40;;;;;;;;;;4994608;28;20058;-82
2021/07/05 14:02:55;;;;;;;0.47;0.45;;;;;;;;;;4994750;28;20042;-81
2021/07/05 14:05:23;;;;;;;1.13;0.68;;;;;;;;;;4994711;28;20057;-82
2021/07/05 14:07:51;;;;;;;1.00;0.60;;;;;;;;;;4994277;28;20564;-81
2021/07/05 14:10:17;;;;;;;1.38;0.60;;;;;;;;;;4994901;28;20402;-82
2021/07/05 14:12:45;;;;;;;0.73;0.60;;;;;;;;;;4995331;28;20053;-82
2021/07/05 14:15:12;;;;;;;0.90;0.60;;;;;;;;;;4994229;28;20399;-81
2021/07/05 14:17:39;;;;;;;1.35;0.82;;;;;;;;;;4994007;28;20050;-81
2021/07/05 14:20:08;;;;;;;1.77;0.70;;;;;;;;;;4994172;28;20058;-81
2021/07/05 14:22:35;;;;;;;1.98;0.75;;;;;;;;;;4994464;28;20383;-81
2021/07/05 14:25:04;;;;;;;4.78;1.63;;;;;;;;;;4994248;28;20052;-82
2021/07/05 14:27:31;;;;;;;1.10;0.57;;;;;;;;;;4994259;28;20059;-82
2021/07/05 14:29:57;;;;;;;3.38;0.70;;;;;;;;;;4994320;28;20057;-81
2021/07/05 14:32:24;;;;;;;1.05;0.60;;;;;;;;;;4994402;28;20053;-81
2021/07/05 14:34:50;;;;;;;1.83;0.90;;;;;;;;;;4994842;28;20562;-81
2021/07/05 14:37:17;;;;;;;0.45;0.40;;;;;;;;;;4994403;28;20058;-81
2021/07/05 14:39:43;;;;;;;0.90;0.63;;;;;;;;;;4994322;28;20049;-80
2021/07/05 14:42:11;;;;;;;1.48;0.80;;;;;;;;;;4994260;28;20050;-80
2021/07/05 14:44:42;;;;;;;1.38;0.70;;;;;;;;;;4994511;28;20051;-80
2021/07/05 14:47:08;;;;;;;1.17;0.50;;;;;;;;;;4994388;28;20056;-81
2021/07/05 14:49:35;;;;;;;0.98;0.55;;;;;;;;;;4994219;28;20054;-83
2021/07/05 14:52:01;;;;;;;1.38;0.47;;;;;;;;;;4993800;28;20076;-82
2021/07/05 14:54:27;;;;;;;0.70;0.55;;;;;;;;;;4993672;28;20407;-81